Lund, Canada
Current Conditions -  °F | °C
As of 7:00 PM on Sunday 21 Dec 2014 (Local Time) from CYPW Reporting Station
Broken Clouds Broken Clouds  
Wind Chill: 40°   Ceiling: 23000
Heat Index: 43°   Visibility: 20mi
Dew Point: 41°   Wind: 5mph
Humidity: 93%   Direction: 120°ESE
Pressure: 29.97"   Gusts: NA
Location:  49.98°N, 124.76°W
Report Text: CYPW 220300Z 12004KT 20SM FEW120 BKN230 06/05 A2997 RMK AC2CI4 LAST OBS/NEXT221500UTC SLP152
Loading
Personal Weather Stations






























Interactive Weather Map New forecast layout! Learn more

10-Day Weather Forecast

Advertisements
Track Severe Weather on mobile